Domov               UVHVVR             MKGP            O straneh              
ZDRAVSTVENO VARSTVO RASTLIN
  MREŽA AGROMET. POSTAJ
 ► PROGNOSTIČNA OBVESTILA
AGROMETEOROLOŠKI PODATKI -
ARSO
OBVLADOVANJE TVEGANJ ZARADI
NEUGODNIH VREMENSKIH RAZMER
  ► NARAVNE NESREČE
  ► SUŠA/MOČA
  ► NAMAKANJE
  ► ŽLED (gozdarstvo)
KARTOGRAFSKI PRIKAZI
SPLETNE POVEZAVE
PROJEKTI IN PUBLIKACIJE

AGROMETEOROLOŠKA MREŽA: VREMENSKE POSTAJE IN FENOLOŠKA OPAZOVANJA

Pregled podatkov za lokacijo Dorfarje, meteorološka postaja 41375

Pregled senzorjev na lokaciji

ID Ime Zadnja
vrednost
Datum
zadnje
spremembe
Tip
senzorja
3846 Padavine 0.2 mm (mm) 0 mm 26.6.2017 00:00 Generic 0.2 mm
3847 Relativna vlaga 2 m (% RH) 97,29 % RH 26.6.2017 00:00 Generic 0 - 100 %
3848 Temperatura 2 m ( °C) 17,7 °C 26.6.2017 00:00 Generic -40 - +60 °C
3849 Omočenost lista (U) 10 U 26.6.2017 00:00 A730WET
3949 Temperatura 20 cm ( °C) 18,02 °C 26.6.2017 00:00 Generic -40 - +60 °C
3950 Relativna vlaga 20 cm (% RH) 99,93 % RH 26.6.2017 00:00 Generic 0 - 100 %
4184 Omočenost lista 20 cm (U) 10 U 26.6.2017 00:00 A730WET

Pregled podatkov zadnjih 24 ur

Zap.
št.
Datum in čas Dorfarje
Omočenost
lista
Omočenost
lista
20
cm
Padavine
0.2
mm
Relativna
vlaga
2
m
Relativna
vlaga
20
cm
Temperatura
2
m
Temperatura
20
cm
0 25.6.2017 23:00 10 10 0 97,29 99,93 17,7 18,02
1 25.6.2017 22:30 10 10 0 97,29 99,93 17,73 18,02
2 25.6.2017 22:00 10 10 0 97 99,93 17,68 17,88
3 25.6.2017 21:30 10 10 0 96,87 99,93 17,73 17,8
4 25.6.2017 21:00 10 9 0 96,78 99,93 17,75 17,75
5 25.6.2017 20:30 10 9 0 96,61 99,93 17,73 17,68
6 25.6.2017 20:00 10 8 0 95,73 99,93 18,17 18,02
7 25.6.2017 19:30 3 9 0 94,7 99,68 18,8 18,9
8 25.6.2017 19:00 8 10 0 95,14 99,93 18,61 18,75
9 25.6.2017 18:30 10 10 0 93,87 99,93 18,93 18,9
10 25.6.2017 18:00 8 10 0 90,79 98,88 18,9 18,8
11 25.6.2017 17:30 9 10 0,6 88,82 95,48 19,51 19,54
12 25.6.2017 17:00 10 10 0,6 91,82 98,32 20,12 20,15
13 25.6.2017 16:30 10 10 0,4 87,67 94,77 20,61 20,71
14 25.6.2017 16:00 10 10 0 83,17 89,38 21,07 21,32
15 25.6.2017 15:30 0 0 0 79,34 84,44 21,59 22,34
16 25.6.2017 15:00 0 0 0 78,39 84,18 21,59 22,3
17 25.6.2017 14:30 0 0 0 77,34 89,43 21,54 22,32
18 25.6.2017 14:00 0 0 0 81,29 99,93 20,81 21,05
19 25.6.2017 13:30 0 0 0 92,92 99,93 18,78 19,44
20 25.6.2017 13:00 0 0 0 97,75 99,93 17,7 18,68
21 25.6.2017 12:30 4 6 0 98,14 99,93 16,95 17,44
22 25.6.2017 12:00 10 10 0 98,17 99,93 16,78 17,07
23 25.6.2017 11:30 10 10 10,6 93,33 97,48 17,78 18
24 25.6.2017 11:00 0 0 0 78,66 85,47 23,27 23,54
25 25.6.2017 10:30 0 0 0 73,48 79,51 23,96 24,71
26 25.6.2017 10:00 0 0 0 73,75 77,26 24,05 25,47
27 25.6.2017 09:30 0 0 0 74,31 77,58 24,15 26,06
28 25.6.2017 09:00 0 0 0 78,93 85,62 23,15 24
29 25.6.2017 08:30 0 0 0 85,08 90,94 22,2 23,13
30 25.6.2017 08:00 0 2 0 89,21 95,7 21,03 21,59
31 25.6.2017 07:30 10 10 0 92,5 99,68 20,44 20,78
32 25.6.2017 07:00 10 10 0 93,31 99,9 20,07 20,2
33 25.6.2017 06:30 10 10 0 94,36 99,93 19,68 19,73
34 25.6.2017 06:00 10 10 0 94,68 99,93 19,51 19,56
35 25.6.2017 05:30 10 10 0 94,92 99,93 19,41 19,27
36 25.6.2017 05:00 10 10 0 95,38 99,93 18,66 18,53
37 25.6.2017 04:30 10 10 0 94,87 99,93 19,19 18,78
38 25.6.2017 04:00 10 10 0 95,09 99,93 19 18,36
39 25.6.2017 03:30 10 10 0 93,9 99,93 19,17 18,73
40 25.6.2017 03:00 10 10 0 93,33 99,93 19,71 19,29
41 25.6.2017 02:30 10 10 0 93,68 99,9 19,41 19
42 25.6.2017 02:00 10 10 0 91,67 99,93 20,17 19,46
43 25.6.2017 01:30 10 7 0 90,82 99,17 20,39 19,41
44 25.6.2017 01:00 10 3 0 89,69 97,97 20,73 20,05
45 25.6.2017 00:30 10 1 0 89,28 97,24 21,05 20,44
© 2011 Ministrstvo za kmetijstvo, gozdarstvo in prehrano. Vse pravice pridržane.